createdAt,value
2018-05-25T00:00:57.103Z,18.30
2018-05-25T00:03:24.751Z,18.30
2018-05-25T00:05:52.320Z,18.40
2018-05-25T00:08:19.945Z,18.40
2018-05-25T00:10:47.536Z,18.40
2018-05-25T00:13:15.171Z,18.40
2018-05-25T00:15:42.802Z,18.50
2018-05-25T00:18:11.198Z,18.40
2018-05-25T00:20:38.774Z,18.40
2018-05-25T00:23:06.398Z,18.30
2018-05-25T00:25:34.795Z,18.30
2018-05-25T00:28:02.360Z,18.30
2018-05-25T00:30:30.064Z,18.30
2018-05-25T00:32:57.648Z,18.30
2018-05-25T00:35:25.269Z,18.30
2018-05-25T00:37:52.864Z,18.30
2018-05-25T00:40:20.421Z,18.30
2018-05-25T00:42:48.031Z,18.30
2018-05-25T00:45:15.669Z,18.30
2018-05-25T00:47:44.103Z,18.30
2018-05-25T00:50:11.705Z,18.30
2018-05-25T00:52:39.286Z,18.20
2018-05-25T00:55:18.738Z,18.20
2018-05-25T00:57:46.369Z,18.20
2018-05-25T01:00:14.754Z,18.10
2018-05-25T01:02:43.156Z,18.10
2018-05-25T01:05:10.744Z,18.10
2018-05-25T01:07:38.401Z,18.10
2018-05-25T01:10:06.008Z,18.10
2018-05-25T01:12:34.350Z,18.10
2018-05-25T01:15:01.955Z,18.10
2018-05-25T01:17:30.333Z,18.20
2018-05-25T01:19:58.703Z,18.20
2018-05-25T01:22:26.307Z,18.20
2018-05-25T01:24:53.922Z,18.20
2018-05-25T01:27:21.514Z,18.20
2018-05-25T01:29:49.151Z,18.20
2018-05-25T01:32:17.520Z,18.20
2018-05-25T01:34:45.118Z,18.20
2018-05-25T01:37:12.753Z,18.20
2018-05-25T01:39:41.158Z,18.20
2018-05-25T01:42:08.762Z,18.20
2018-05-25T01:44:36.391Z,18.20
2018-05-25T01:47:04.020Z,18.20
2018-05-25T01:49:32.364Z,18.20
2018-05-25T01:51:59.981Z,18.20
2018-05-25T01:54:27.565Z,18.20
2018-05-25T01:56:55.165Z,18.10
2018-05-25T01:59:23.540Z,18.10
2018-05-25T02:01:51.150Z,18.10
2018-05-25T02:04:18.755Z,18.00
2018-05-25T02:06:46.352Z,18.00
2018-05-25T02:09:14.691Z,17.90
2018-05-25T02:11:42.258Z,17.90
2018-05-25T02:14:09.883Z,17.90
2018-05-25T02:16:37.482Z,17.80
2018-05-25T02:19:05.110Z,17.80
2018-05-25T02:21:32.735Z,17.80
2018-05-25T02:24:00.363Z,17.80
2018-05-25T02:26:27.956Z,17.80
2018-05-25T02:28:55.554Z,17.80
2018-05-25T02:31:23.140Z,17.80
2018-05-25T02:33:50.764Z,17.80
2018-05-25T02:36:19.118Z,17.90
2018-05-25T02:38:46.741Z,17.80
2018-05-25T02:41:14.325Z,17.80
2018-05-25T02:43:42.741Z,17.80
2018-05-25T02:46:10.345Z,17.80
2018-05-25T02:48:37.978Z,17.80
2018-05-25T02:51:05.576Z,17.80
2018-05-25T02:53:33.231Z,17.70
2018-05-25T02:56:00.848Z,17.70
2018-05-25T02:58:28.458Z,17.70
2018-05-25T03:00:56.085Z,17.70
2018-05-25T03:03:23.672Z,17.70
2018-05-25T03:05:51.253Z,17.70
2018-05-25T03:08:18.831Z,17.70
2018-05-25T03:10:46.456Z,17.70
2018-05-25T03:13:14.040Z,17.70
2018-05-25T03:15:42.371Z,17.60
2018-05-25T03:18:10.020Z,17.60
2018-05-25T03:20:37.929Z,17.60
2018-05-25T03:23:05.871Z,17.60
2018-05-25T03:25:34.294Z,17.50
2018-05-25T03:28:01.876Z,17.50
2018-05-25T03:30:29.486Z,17.50
2018-05-25T03:32:57.112Z,17.40
2018-05-25T03:35:24.791Z,17.50
2018-05-25T03:37:52.361Z,17.40
2018-05-25T03:40:19.946Z,17.40
2018-05-25T03:42:47.546Z,17.40
2018-05-25T03:45:15.160Z,17.30
2018-05-25T03:47:42.806Z,17.40
2018-05-25T03:50:10.372Z,17.40
2018-05-25T03:52:37.951Z,17.40
2018-05-25T03:55:05.561Z,17.40
2018-05-25T03:57:33.237Z,17.40
2018-05-25T04:00:12.781Z,17.50
2018-05-25T04:02:40.364Z,17.50
2018-05-25T04:05:07.969Z,17.50
2018-05-25T04:07:35.659Z,17.50
2018-05-25T04:10:03.276Z,17.60
2018-05-25T04:12:31.750Z,17.60
2018-05-25T04:15:00.137Z,17.60
2018-05-25T04:17:27.737Z,17.60
2018-05-25T04:19:55.411Z,17.70
2018-05-25T04:22:23.040Z,17.60
2018-05-25T04:24:50.644Z,17.60
2018-05-25T04:27:18.252Z,17.60
2018-05-25T04:29:45.868Z,17.70
2018-05-25T04:32:13.449Z,17.60
2018-05-25T04:34:41.051Z,17.70
2018-05-25T04:37:08.683Z,17.70
2018-05-25T04:39:36.334Z,17.70
2018-05-25T04:42:03.925Z,17.80
2018-05-25T04:44:31.556Z,17.80
2018-05-25T04:46:59.154Z,17.80
2018-05-25T04:49:26.756Z,17.80
2018-05-25T04:51:54.405Z,17.80
2018-05-25T04:54:21.983Z,17.80
2018-05-25T04:56:49.584Z,17.90
2018-05-25T04:59:17.191Z,17.90
2018-05-25T05:01:44.808Z,18.00
2018-05-25T05:04:13.189Z,18.10
2018-05-25T05:06:41.564Z,18.00
2018-05-25T05:09:09.163Z,18.00
2018-05-25T05:11:36.783Z,18.00
2018-05-25T05:14:05.163Z,18.00
2018-05-25T05:16:33.541Z,18.00
2018-05-25T05:19:01.886Z,18.10
2018-05-25T05:21:29.531Z,18.10
2018-05-25T05:23:57.145Z,18.10
2018-05-25T05:26:25.510Z,18.20
2018-05-25T05:28:53.111Z,18.20
2018-05-25T05:31:20.704Z,18.30
2018-05-25T05:33:48.317Z,18.30
2018-05-25T05:36:15.889Z,18.30
2018-05-25T05:38:43.545Z,18.30
2018-05-25T05:41:11.202Z,18.30
2018-05-25T05:43:38.810Z,18.40
2018-05-25T05:46:06.385Z,18.40
2018-05-25T05:48:33.995Z,18.50
2018-05-25T05:51:01.667Z,18.50
2018-05-25T05:53:29.252Z,18.60
2018-05-25T05:55:56.867Z,18.70
2018-05-25T05:58:24.454Z,18.80
2018-05-25T06:00:52.096Z,18.90
2018-05-25T06:03:19.683Z,19.00
2018-05-25T06:05:47.260Z,19.10
2018-05-25T06:08:14.879Z,19.10
2018-05-25T06:10:42.450Z,19.10
2018-05-25T06:13:10.044Z,19.20
2018-05-25T06:15:37.729Z,19.30
2018-05-25T06:18:06.197Z,19.40
2018-05-25T06:20:33.779Z,19.40
2018-05-25T06:23:01.387Z,19.50
2018-05-25T06:25:28.983Z,19.60
2018-05-25T06:27:56.610Z,19.70
2018-05-25T06:30:24.238Z,19.80
2018-05-25T06:32:51.799Z,19.80
2018-05-25T06:35:19.387Z,19.80
2018-05-25T06:37:47.140Z,19.90
2018-05-25T06:40:14.847Z,19.90
2018-05-25T06:42:42.562Z,20.10
2018-05-25T06:45:10.187Z,20.30
2018-05-25T06:47:38.576Z,20.70
2018-05-25T06:50:06.190Z,20.60
2018-05-25T06:52:33.770Z,20.90
2018-05-25T06:55:01.473Z,21.10
2018-05-25T06:57:29.058Z,21.10
2018-05-25T06:59:56.665Z,21.30
2018-05-25T07:02:24.294Z,21.50
2018-05-25T07:04:51.923Z,21.50
2018-05-25T07:07:19.558Z,21.50
2018-05-25T07:09:47.139Z,21.40
2018-05-25T07:12:14.778Z,21.50
2018-05-25T07:14:42.375Z,21.60
2018-05-25T07:17:09.949Z,21.80
2018-05-25T07:19:37.550Z,22.00
2018-05-25T07:22:05.209Z,22.10
2018-05-25T07:24:32.789Z,22.20
2018-05-25T07:27:01.150Z,22.10
2018-05-25T07:29:28.820Z,22.10
2018-05-25T07:31:56.415Z,22.20
2018-05-25T07:34:24.033Z,22.20
2018-05-25T07:36:51.676Z,22.10
2018-05-25T07:39:19.281Z,22.10
2018-05-25T07:41:47.047Z,22.20
2018-05-25T07:44:14.612Z,22.20
2018-05-25T07:46:43.006Z,22.10
2018-05-25T07:49:10.624Z,22.10
2018-05-25T07:51:38.235Z,22.20
2018-05-25T07:54:05.919Z,22.40
2018-05-25T07:56:33.493Z,22.60
2018-05-25T07:59:01.144Z,22.80
2018-05-25T08:01:28.767Z,23.00
2018-05-25T08:03:56.461Z,22.90
2018-05-25T08:06:24.091Z,22.80
2018-05-25T08:08:51.700Z,22.60
2018-05-25T08:11:19.343Z,22.40
2018-05-25T08:13:46.908Z,22.20
2018-05-25T08:16:14.539Z,22.20
2018-05-25T08:18:42.151Z,22.40
2018-05-25T08:21:09.830Z,22.40
2018-05-25T08:23:38.204Z,22.40
2018-05-25T08:26:05.793Z,22.50
2018-05-25T08:28:33.394Z,22.60
2018-05-25T08:31:01.043Z,22.60
2018-05-25T08:33:28.701Z,22.60
2018-05-25T08:35:56.295Z,22.50
2018-05-25T08:38:23.933Z,22.60
2018-05-25T08:40:51.562Z,22.60
2018-05-25T08:43:19.198Z,22.70
2018-05-25T08:45:47.601Z,22.80
2018-05-25T08:48:15.297Z,22.70
2018-05-25T08:50:42.973Z,22.70
2018-05-25T08:53:10.563Z,22.60
2018-05-25T08:55:38.132Z,22.40
2018-05-25T08:58:06.484Z,22.50
2018-05-25T09:00:34.128Z,22.50
2018-05-25T09:03:01.731Z,22.60
2018-05-25T09:05:30.142Z,22.70
2018-05-25T09:07:57.720Z,22.60
2018-05-25T09:10:25.345Z,22.80
2018-05-25T09:12:52.934Z,22.80
2018-05-25T09:15:20.557Z,22.90
2018-05-25T09:17:48.936Z,23.20
2018-05-25T09:20:17.330Z,23.30
2018-05-25T09:22:44.928Z,23.40
2018-05-25T09:25:12.569Z,23.40
2018-05-25T09:27:40.339Z,23.50
2018-05-25T09:30:07.968Z,23.50
2018-05-25T09:32:36.317Z,23.70
2018-05-25T09:35:03.906Z,23.60
2018-05-25T09:37:31.548Z,23.70
2018-05-25T09:39:59.159Z,23.90
2018-05-25T09:42:27.432Z,24.10
2018-05-25T09:44:55.026Z,24.10
2018-05-25T09:47:22.617Z,24.10
2018-05-25T09:49:50.265Z,24.10
2018-05-25T09:52:17.893Z,24.00
2018-05-25T09:54:45.478Z,24.10
2018-05-25T09:57:13.090Z,24.10
2018-05-25T09:59:40.719Z,24.30
2018-05-25T10:02:08.321Z,24.40
2018-05-25T10:04:35.920Z,24.40
2018-05-25T10:07:03.558Z,24.50
2018-05-25T10:09:31.220Z,24.60
2018-05-25T10:11:58.924Z,24.50
2018-05-25T10:14:26.547Z,24.40
2018-05-25T10:16:54.174Z,24.50
2018-05-25T10:19:22.523Z,24.60
2018-05-25T10:21:50.125Z,24.50
2018-05-25T10:24:17.710Z,24.70
2018-05-25T10:26:45.351Z,25.00
2018-05-25T10:29:12.982Z,25.30
2018-05-25T10:31:40.586Z,25.40
2018-05-25T10:34:08.188Z,25.50
2018-05-25T10:36:35.831Z,25.60
2018-05-25T10:39:03.522Z,25.80
2018-05-25T10:41:31.157Z,25.50
2018-05-25T10:43:58.740Z,25.50
2018-05-25T10:46:26.331Z,25.60
2018-05-25T10:48:53.920Z,25.50
2018-05-25T10:51:21.557Z,25.30
2018-05-25T10:53:49.210Z,25.30
2018-05-25T10:56:17.487Z,25.20
2018-05-25T10:58:45.844Z,25.30
2018-05-25T11:01:13.465Z,25.30
2018-05-25T11:03:41.105Z,25.40
2018-05-25T11:06:08.694Z,25.50
2018-05-25T11:08:36.344Z,25.70
2018-05-25T11:11:03.911Z,25.80
2018-05-25T11:13:31.509Z,25.80
2018-05-25T11:15:59.088Z,25.60
2018-05-25T11:18:26.667Z,25.80
2018-05-25T11:20:54.461Z,25.90
2018-05-25T11:23:22.079Z,25.90
2018-05-25T11:25:49.682Z,25.90
2018-05-25T11:28:17.383Z,25.90
2018-05-25T11:30:45.740Z,25.90
2018-05-25T11:33:13.423Z,25.90
2018-05-25T11:35:41.047Z,25.90
2018-05-25T11:38:08.694Z,25.80
2018-05-25T11:40:36.347Z,25.90
2018-05-25T11:43:03.909Z,25.80
2018-05-25T11:45:31.500Z,25.90
2018-05-25T11:47:59.133Z,26.00
2018-05-25T11:50:26.728Z,26.10
2018-05-25T11:52:54.419Z,26.10
2018-05-25T11:55:22.840Z,26.60
2018-05-25T11:57:50.455Z,26.50
2018-05-25T12:00:18.083Z,26.40
2018-05-25T12:02:45.665Z,26.30
2018-05-25T12:05:13.907Z,26.20
2018-05-25T12:07:41.557Z,26.20
2018-05-25T12:10:09.153Z,26.00
2018-05-25T12:12:36.778Z,26.00
2018-05-25T12:15:05.112Z,26.00
2018-05-25T12:17:32.741Z,26.00
2018-05-25T12:20:00.332Z,26.00
2018-05-25T12:22:27.968Z,26.00
2018-05-25T12:24:55.622Z,26.00
2018-05-25T12:27:23.275Z,25.90
2018-05-25T12:29:50.848Z,25.70
2018-05-25T12:32:18.439Z,25.60
2018-05-25T12:34:46.353Z,25.60
2018-05-25T12:37:13.906Z,25.70
2018-05-25T12:39:41.480Z,25.90
2018-05-25T12:42:09.650Z,26.00
2018-05-25T12:44:49.048Z,25.90
2018-05-25T12:47:17.400Z,26.10
2018-05-25T12:49:45.015Z,26.00
2018-05-25T12:52:13.401Z,26.20
2018-05-25T12:54:41.832Z,26.30
2018-05-25T12:57:09.404Z,26.60
2018-05-25T12:59:37.774Z,26.30
2018-05-25T13:02:05.390Z,26.30
2018-05-25T13:04:33.003Z,26.10
2018-05-25T13:07:01.407Z,25.80
2018-05-25T13:09:29.004Z,25.80
2018-05-25T13:11:56.555Z,25.60
2018-05-25T13:14:24.140Z,25.70
2018-05-25T13:16:51.724Z,25.70
2018-05-25T13:19:19.362Z,25.70
2018-05-25T13:21:46.963Z,25.70
2018-05-25T13:24:14.700Z,25.70
2018-05-25T13:26:42.298Z,25.80
2018-05-25T13:29:10.906Z,25.90
2018-05-25T13:31:38.637Z,26.00
2018-05-25T13:34:06.248Z,26.00
2018-05-25T13:36:34.179Z,25.90
2018-05-25T13:39:01.803Z,26.00
2018-05-25T13:41:30.277Z,26.10
2018-05-25T13:43:57.869Z,26.10
2018-05-25T13:46:25.463Z,25.90
2018-05-25T13:48:53.067Z,25.70
2018-05-25T13:51:20.664Z,25.60
2018-05-25T13:53:48.283Z,25.50
2018-05-25T13:56:15.883Z,25.40
2018-05-25T13:58:43.492Z,25.40
2018-05-25T14:01:11.074Z,25.50
2018-05-25T14:03:38.675Z,25.50
2018-05-25T14:06:06.311Z,25.40
2018-05-25T14:08:33.935Z,25.40
2018-05-25T14:11:01.564Z,25.50
2018-05-25T14:13:29.185Z,25.40
2018-05-25T14:15:56.848Z,25.50
2018-05-25T14:18:25.235Z,25.60
2018-05-25T14:20:53.586Z,25.80
2018-05-25T14:23:21.210Z,25.80
2018-05-25T14:25:48.882Z,25.90
2018-05-25T14:28:16.692Z,25.90
2018-05-25T14:30:44.329Z,25.70
2018-05-25T14:33:11.984Z,25.40
2018-05-25T14:35:39.589Z,25.30
2018-05-25T14:38:07.898Z,25.20
2018-05-25T14:40:35.490Z,25.20
2018-05-25T14:43:03.084Z,25.30
2018-05-25T14:45:31.472Z,25.40
2018-05-25T14:47:59.105Z,25.40
2018-05-25T14:50:26.685Z,25.50
2018-05-25T14:52:55.034Z,25.40
2018-05-25T14:55:22.626Z,25.40
2018-05-25T14:57:50.304Z,25.60
2018-05-25T15:00:17.896Z,25.80
2018-05-25T15:02:45.505Z,25.90
2018-05-25T15:05:13.889Z,25.90
2018-05-25T15:07:41.537Z,25.90
2018-05-25T15:10:09.910Z,25.80
2018-05-25T15:12:37.536Z,25.80
2018-05-25T15:15:05.117Z,25.90
2018-05-25T15:17:32.712Z,25.90
2018-05-25T15:20:01.088Z,25.90
2018-05-25T15:22:29.472Z,25.90
2018-05-25T15:24:57.107Z,25.90
2018-05-25T15:27:24.730Z,25.90
2018-05-25T15:29:52.356Z,25.80
2018-05-25T15:32:20.722Z,25.80
2018-05-25T15:34:49.060Z,26.00
2018-05-25T15:37:16.700Z,25.90
2018-05-25T15:39:44.298Z,26.00
2018-05-25T15:42:11.871Z,26.10
2018-05-25T15:44:39.439Z,26.10
2018-05-25T15:47:07.085Z,26.20
2018-05-25T15:49:34.668Z,26.20
2018-05-25T15:52:03.029Z,26.00
2018-05-25T15:54:30.632Z,26.00
2018-05-25T15:56:58.260Z,26.00
2018-05-25T15:59:26.644Z,25.90
2018-05-25T16:01:55.061Z,25.90
2018-05-25T16:04:22.640Z,25.90
2018-05-25T16:06:50.212Z,25.90
2018-05-25T16:09:17.776Z,25.90
2018-05-25T16:11:45.411Z,26.10
2018-05-25T16:14:13.228Z,26.20
2018-05-25T16:16:40.771Z,26.30
2018-05-25T16:19:08.354Z,26.40
2018-05-25T16:21:36.007Z,26.40
2018-05-25T16:24:03.661Z,26.50
2018-05-25T16:26:31.851Z,26.40
2018-05-25T16:29:00.200Z,26.40
2018-05-25T16:31:27.840Z,26.30
2018-05-25T16:33:55.394Z,26.40
2018-05-25T16:36:23.046Z,26.50
2018-05-25T16:38:50.748Z,26.50
2018-05-25T16:41:18.390Z,26.50
2018-05-25T16:43:45.980Z,26.50
2018-05-25T16:46:13.573Z,26.60
2018-05-25T16:48:41.194Z,26.70
2018-05-25T16:51:08.824Z,26.90
2018-05-25T16:53:36.443Z,26.90
2018-05-25T16:56:04.812Z,27.00
2018-05-25T16:58:32.379Z,27.00
2018-05-25T17:01:00.793Z,27.60
2018-05-25T17:03:28.344Z,27.60
2018-05-25T17:05:55.966Z,28.00
2018-05-25T17:08:23.586Z,28.30
2018-05-25T17:10:51.290Z,28.80
2018-05-25T17:13:18.892Z,29.00
2018-05-25T17:15:46.541Z,29.10
2018-05-25T17:18:14.158Z,29.50
2018-05-25T17:20:41.768Z,30.10
2018-05-25T17:23:09.404Z,30.60
2018-05-25T17:25:37.777Z,30.80
2018-05-25T17:28:05.421Z,30.80
2018-05-25T17:30:33.009Z,30.50
2018-05-25T17:33:00.668Z,30.30
2018-05-25T17:35:29.066Z,30.10
2018-05-25T17:37:56.697Z,30.10
2018-05-25T17:40:24.666Z,30.00
2018-05-25T17:42:53.384Z,30.30
2018-05-25T17:45:21.013Z,30.30
2018-05-25T17:47:48.604Z,30.10
2018-05-25T17:50:16.212Z,30.00
2018-05-25T17:52:43.901Z,29.70
2018-05-25T17:55:11.475Z,29.80
2018-05-25T17:57:39.840Z,29.80
2018-05-25T18:00:07.464Z,29.70
2018-05-25T18:02:35.093Z,29.30
2018-05-25T18:05:02.704Z,28.80
2018-05-25T18:07:30.351Z,28.30
2018-05-25T18:09:57.965Z,27.90
2018-05-25T18:12:26.355Z,27.10
2018-05-25T18:14:53.979Z,27.10
2018-05-25T18:17:21.647Z,26.80
2018-05-25T18:19:49.223Z,26.50
2018-05-25T18:22:17.630Z,26.30
2018-05-25T18:24:45.247Z,26.30
2018-05-25T18:27:13.066Z,26.10
2018-05-25T18:29:40.640Z,25.90
2018-05-25T18:32:08.267Z,25.80
2018-05-25T18:34:35.852Z,25.70
2018-05-25T18:37:03.458Z,25.60
2018-05-25T18:39:31.045Z,25.60
2018-05-25T18:41:59.399Z,25.40
2018-05-25T18:44:27.776Z,25.20
2018-05-25T18:46:55.373Z,25.20
2018-05-25T18:49:22.986Z,25.10
2018-05-25T18:51:50.588Z,25.10
2018-05-25T18:54:30.768Z,24.90
2018-05-25T18:56:58.385Z,24.90
2018-05-25T18:59:26.018Z,24.80
2018-05-25T19:01:53.635Z,24.70
2018-05-25T19:04:21.240Z,24.70
2018-05-25T19:06:48.935Z,24.60
2018-05-25T19:09:16.540Z,24.50
2018-05-25T19:11:44.131Z,24.40
2018-05-25T19:14:11.728Z,24.40
2018-05-25T19:16:40.119Z,24.30
2018-05-25T19:19:07.704Z,24.30
2018-05-25T19:21:35.263Z,24.20
2018-05-25T19:24:02.896Z,24.10
2018-05-25T19:26:30.505Z,24.10
2018-05-25T19:28:58.136Z,24.00
2018-05-25T19:31:25.757Z,24.00
2018-05-25T19:33:54.183Z,23.80
2018-05-25T19:36:21.752Z,23.80
2018-05-25T19:38:49.359Z,23.70
2018-05-25T19:41:17.718Z,23.60
2018-05-25T19:43:45.302Z,23.60
2018-05-25T19:46:13.661Z,23.50
2018-05-25T19:48:41.240Z,23.50
2018-05-25T19:51:09.618Z,23.50
2018-05-25T19:53:37.975Z,23.40
2018-05-25T19:56:05.586Z,23.40
2018-05-25T19:58:33.174Z,23.40
2018-05-25T20:01:00.777Z,23.30
2018-05-25T20:03:28.381Z,23.20
2018-05-25T20:05:56.008Z,23.20
2018-05-25T20:08:24.343Z,23.20
2018-05-25T20:10:51.941Z,23.20
2018-05-25T20:13:19.605Z,23.20
2018-05-25T20:15:48.051Z,23.00
2018-05-25T20:18:15.664Z,22.90
2018-05-25T20:20:43.256Z,22.80
2018-05-25T20:23:10.908Z,22.80
2018-05-25T20:25:38.510Z,22.80
2018-05-25T20:28:06.122Z,22.80
2018-05-25T20:30:33.726Z,22.70
2018-05-25T20:33:01.442Z,22.60
2018-05-25T20:35:29.111Z,22.60
2018-05-25T20:37:56.689Z,22.50
2018-05-25T20:40:24.280Z,22.40
2018-05-25T20:42:51.891Z,22.40
2018-05-25T20:45:19.474Z,22.30
2018-05-25T20:47:47.104Z,22.30
2018-05-25T20:50:14.694Z,22.20
2018-05-25T20:52:42.272Z,22.10
2018-05-25T20:55:09.881Z,22.10
2018-05-25T20:57:37.462Z,22.10
2018-05-25T21:00:05.063Z,22.00
2018-05-25T21:02:32.754Z,21.70
2018-05-25T21:05:00.438Z,21.70
2018-05-25T21:07:28.048Z,21.70
2018-05-25T21:09:55.690Z,21.70
2018-05-25T21:12:23.671Z,21.70
2018-05-25T21:14:51.235Z,21.60
2018-05-25T21:17:18.811Z,21.60
2018-05-25T21:19:47.241Z,21.50
2018-05-25T21:22:14.865Z,21.50
2018-05-25T21:24:42.450Z,21.50
2018-05-25T21:27:10.020Z,21.50
2018-05-25T21:29:37.600Z,21.50
2018-05-25T21:32:05.964Z,21.50
2018-05-25T21:34:33.549Z,21.50
2018-05-25T21:37:01.145Z,21.40
2018-05-25T21:39:28.739Z,21.40
2018-05-25T21:41:56.322Z,21.30
2018-05-25T21:44:23.941Z,21.40
2018-05-25T21:46:51.559Z,21.40
2018-05-25T21:49:19.147Z,21.30
2018-05-25T21:51:47.534Z,21.30
2018-05-25T21:54:15.867Z,21.30
2018-05-25T21:56:43.520Z,21.30
2018-05-25T21:59:12.023Z,21.30
2018-05-25T22:01:41.010Z,21.30
2018-05-25T22:04:09.596Z,21.30
2018-05-25T22:06:37.243Z,21.30
2018-05-25T22:09:05.731Z,21.40
2018-05-25T22:11:33.331Z,21.30
2018-05-25T22:14:01.831Z,21.30
2018-05-25T22:16:29.438Z,21.30
2018-05-25T22:18:57.086Z,21.30
2018-05-25T22:21:24.680Z,21.30
2018-05-25T22:23:52.304Z,21.30
2018-05-25T22:26:19.887Z,21.20
2018-05-25T22:28:47.484Z,21.20
2018-05-25T22:31:15.072Z,21.20
2018-05-25T22:33:42.615Z,21.30
2018-05-25T22:36:10.194Z,21.30
2018-05-25T22:38:38.037Z,21.20
2018-05-25T22:41:05.650Z,21.20
2018-05-25T22:43:45.288Z,21.20
2018-05-25T22:46:24.865Z,21.10
2018-05-25T22:49:05.061Z,20.90
2018-05-25T22:51:44.377Z,20.90
2018-05-25T22:54:17.640Z,20.90
2018-05-25T22:56:45.239Z,20.80
2018-05-25T22:59:12.846Z,20.70
2018-05-25T23:01:40.552Z,20.70
2018-05-25T23:04:08.120Z,20.70
2018-05-25T23:06:35.742Z,20.80
2018-05-25T23:09:04.156Z,20.70
2018-05-25T23:11:32.260Z,20.70
2018-05-25T23:13:59.872Z,20.80
2018-05-25T23:16:28.204Z,20.70
2018-05-25T23:18:55.820Z,20.70
2018-05-25T23:21:23.381Z,20.60
2018-05-25T23:23:50.982Z,20.60
2018-05-25T23:26:18.603Z,20.60
2018-05-25T23:28:46.245Z,20.50
2018-05-25T23:31:13.924Z,20.60
2018-05-25T23:36:15.402Z,20.40
2018-05-25T23:38:43.021Z,20.40
2018-05-25T23:41:11.421Z,20.50
2018-05-25T23:43:39.794Z,20.50
2018-05-25T23:46:07.472Z,20.50
2018-05-25T23:48:35.108Z,20.60
2018-05-25T23:51:03.484Z,20.60
2018-05-25T23:53:31.873Z,20.70
2018-05-25T23:56:00.228Z,20.70
2018-05-25T23:58:27.812Z,20.70
